Morro Bay, CA

2:47 PM PDT on August 27, 2014 (GMT -0700)
Bonita and Hwy 1 | Change Station
CLOSE
Current Station
Personal Weather Station
Location: Morro Bay, CA
Elevation: 45 ft
Nearby Weather Stations
Active Advisory: Beach Hazard Statement

Elev 45 ft 35.39 °N, 120.86 °W | Updated 10 seconds ago

Clear
Clear
73.0 °F
Feels Like 76 °F
N
8.0
Wind Variable Wind from NW
Gusts 11.0 mph

Today
High -- | Low -- °F
--% Chance of Precip.
Yesterday
High -- | Low -- °F
Precip. -- in
6:32 AM 7:37 PM
Waxing Crescent, 5% visible
Pressure 30.03 in
Visibility 10.0 miles
Clouds Clear
Heat Index 76 °F
Dew Point 63 °F
Humidity 67%
Rainfall 0.00 in
Snow Depth Not available.
UV 10 out of 12
Pollen 8.60 out of 12
Air Quality Not available.
Flu Activity Not available.
METAR KSBP 272056Z 30009KT 10SM CLR 29/13 A3004 RMK AO2 SLP168 T02890128 56008

More Conditions Fewer Conditions

Pressure 30.03 in
Visibility 10.0 miles
Clouds Clear
Heat Index 76 °F
Dew Point 63 °F
Humidity 67%
Rainfall 0.00 in
Snow Depth Not available.
UV 10 out of 12
Pollen 8.60 out of 12
Air Quality Not available.
Flu Activity Not available.
METAR KSBP 272056Z 30009KT 10SM CLR 29/13 A3004 RMK AO2 SLP168 T02890128 56008

More Conditions Fewer Conditions

10-Day Weather Forecast

Almanac

Astronomy

Aug. 27, 2014 Rise Set
Actual Time 6:32 AM PDT 7:37 PM PDT
Civil Twilight 6:05 AM PDT 8:03 PM PDT
Nautical Twilight 5:34 AM PDT 8:34 PM PDT
Astronomical Twilight 5:02 AM PDT 9:06 PM PDT
Moon 8:27 AM PDT 8:38 PM PDT
Length of Visible Light 13h 57m
Length of Day
13h 04m
Tomorrow will be 2m 5s shorter.
Waxing Crescent, 5% of the Moon is Illuminated
Today
Waxing Crescent
Sep 2
First Quarter
Sep 8
Full
Sep 15
Last Quarter
Sep 24
New

Today's Extremes

State Highs State Lows

Community

WunderPhotos

Upload Photos

1,747,791 photos uploaded!

Nearby

Snow Depth

Station Depth Elevation
Leavitt Lake 0 in 9400 ft
Leavitt Meadows 1 in 7200 ft
Summit Meadow 0 in 9122 ft
Fallen Leaf 0 in 6300 ft
Rubicon #2 0 in 7500 ft

Earthquake Activity

City Distance Mag. Time & Date
Soledad, California 80 miles 2.6 12:15 PM PDT
2014-08-26
Minimum magnitude displayed is 2.5.

Coastal Water Temperatures

Place Temperature
No Stations Reporting

Nearby Weather Stations